Wailea, Hawaii
Current Conditions -  °F | °C
As of 1:54 PM on Saturday 25 Oct 2014 (Local Time) from PHOG Reporting Station
Scattered Clouds Scattered Clouds  
Wind Chill: 87°   Ceiling: Unl
Heat Index: 91°   Visibility: 10mi
Dew Point: 68°   Wind: 20mph
Humidity: 53%   Direction: 60°ENE
Pressure: 29.94"   Gusts: 26mph
Location:  20.7651°N, 156.425°W
Report Text: PHOG 252354Z 06017G23KT 10SM FEW025 SCT060 31/20 A2994 RMK AO2 PK WND 06028/2306 SLP145 T03060200 10317 20228 56023 $
Loading
Personal Weather Stations






























Interactive Weather Map
Tropical Storm Tracking
New forecast layout! Learn more

10-Day Weather Forecast

Advertisements
Track Severe Weather on mobile